sensor_id;sensor_type;location;lat;lon;timestamp;pressure;altitude;pressure_sealevel;temperature;humidity
65760;BME280;52496;51.082;5.066;2023-07-20T00:00:41;101338.28;;;16.42;100.00
65760;BME280;52496;51.082;5.066;2023-07-20T00:03:12;101330.84;;;16.38;100.00
65760;BME280;52496;51.082;5.066;2023-07-20T00:05:46;101340.19;;;16.35;100.00
65760;BME280;52496;51.082;5.066;2023-07-20T00:08:17;101344.31;;;16.31;100.00
65760;BME280;52496;51.082;5.066;2023-07-20T00:10:48;101344.13;;;16.26;100.00
65760;BME280;52496;51.082;5.066;2023-07-20T00:13:19;101348.28;;;16.22;100.00
65760;BME280;52496;51.082;5.066;2023-07-20T00:15:52;101341.25;;;16.14;100.00
65760;BME280;52496;51.082;5.066;2023-07-20T00:18:22;101342.72;;;16.10;100.00
65760;BME280;52496;51.082;5.066;2023-07-20T00:20:53;101354.09;;;16.05;100.00
65760;BME280;52496;51.082;5.066;2023-07-20T00:23:24;101345.81;;;16.00;100.00
65760;BME280;52496;51.082;5.066;2023-07-20T00:25:54;101345.63;;;15.95;100.00
65760;BME280;52496;51.082;5.066;2023-07-20T00:28:25;101345.41;;;15.90;100.00
65760;BME280;52496;51.082;5.066;2023-07-20T00:30:55;101340.63;;;15.86;100.00
65760;BME280;52496;51.082;5.066;2023-07-20T00:33:26;101334.38;;;15.85;100.00
65760;BME280;52496;51.082;5.066;2023-07-20T00:35:57;101339.19;;;15.90;100.00
65760;BME280;52496;51.082;5.066;2023-07-20T00:38:27;101346.84;;;15.93;100.00
65760;BME280;52496;51.082;5.066;2023-07-20T00:40:57;101352.88;;;15.95;100.00
65760;BME280;52496;51.082;5.066;2023-07-20T00:43:28;101342.50;;;15.98;100.00
65760;BME280;52496;51.082;5.066;2023-07-20T00:45:59;101342.69;;;16.03;100.00
65760;BME280;52496;51.082;5.066;2023-07-20T00:48:31;101349.34;;;16.08;100.00
65760;BME280;52496;51.082;5.066;2023-07-20T00:51:02;101345.00;;;16.13;100.00
65760;BME280;52496;51.082;5.066;2023-07-20T00:53:33;101354.94;;;16.19;100.00
65760;BME280;52496;51.082;5.066;2023-07-20T00:56:04;101353.47;;;16.23;100.00
65760;BME280;52496;51.082;5.066;2023-07-20T00:58:35;101351.00;;;16.28;100.00
65760;BME280;52496;51.082;5.066;2023-07-20T01:01:06;101346.19;;;16.31;100.00
65760;BME280;52496;51.082;5.066;2023-07-20T01:03:37;101348.28;;;16.35;100.00
65760;BME280;52496;51.082;5.066;2023-07-20T01:11:43;101352.00;;;16.41;100.00
65760;BME280;52496;51.082;5.066;2023-07-20T01:14:16;101353.66;;;16.42;100.00
65760;BME280;52496;51.082;5.066;2023-07-20T01:16:47;101353.66;;;16.42;100.00
65760;BME280;52496;51.082;5.066;2023-07-20T01:19:19;101347.44;;;16.41;100.00
65760;BME280;52496;51.082;5.066;2023-07-20T01:28:40;101347.00;;;16.44;100.00
65760;BME280;52496;51.082;5.066;2023-07-20T01:31:21;101354.88;;;16.46;100.00
65760;BME280;52496;51.082;5.066;2023-07-20T01:33:57;101354.06;;;16.45;100.00
65760;BME280;52496;51.082;5.066;2023-07-20T01:36:30;101354.06;;;16.45;100.00
65760;BME280;52496;51.082;5.066;2023-07-20T01:39:03;101344.31;;;16.44;100.00
65760;BME280;52496;51.082;5.066;2023-07-20T01:41:34;101347.00;;;16.44;100.00
65760;BME280;52496;51.082;5.066;2023-07-20T01:44:05;101343.50;;;16.44;100.00
65760;BME280;52496;51.082;5.066;2023-07-20T01:46:36;101339.97;;;16.43;100.00
65760;BME280;52496;51.082;5.066;2023-07-20T01:49:06;101341.81;;;16.43;100.00
65760;BME280;52496;51.082;5.066;2023-07-20T01:51:37;101346.59;;;16.41;100.00
65760;BME280;52496;51.082;5.066;2023-07-20T01:54:08;101346.22;;;16.37;100.00
65760;BME280;52496;51.082;5.066;2023-07-20T01:56:39;101342.06;;;16.35;100.00
65760;BME280;52496;51.082;5.066;2023-07-20T01:59:09;101338.91;;;16.31;100.00
65760;BME280;52496;51.082;5.066;2023-07-20T02:01:40;101340.38;;;16.27;100.00
65760;BME280;52496;51.082;5.066;2023-07-20T02:04:10;101351.59;;;16.24;100.00
65760;BME280;52496;51.082;5.066;2023-07-20T02:06:41;101352.25;;;16.19;100.00
65760;BME280;52496;51.082;5.066;2023-07-20T02:09:12;101345.81;;;16.14;100.00
65760;BME280;52496;51.082;5.066;2023-07-20T02:11:43;101351.00;;;16.09;100.00
65760;BME280;52496;51.082;5.066;2023-07-20T02:14:13;101344.38;;;16.04;100.00
65760;BME280;52496;51.082;5.066;2023-07-20T02:16:44;101349.13;;;16.02;100.00
65760;BME280;52496;51.082;5.066;2023-07-20T02:19:14;101354.13;;;15.99;100.00
65760;BME280;52496;51.082;5.066;2023-07-20T02:21:45;101352.88;;;15.95;100.00
65760;BME280;52496;51.082;5.066;2023-07-20T02:24:16;101353.50;;;15.90;100.00
65760;BME280;52496;51.082;5.066;2023-07-20T02:26:46;101347.69;;;15.87;100.00
65760;BME280;52496;51.082;5.066;2023-07-20T02:29:17;101349.97;;;15.83;100.00
65760;BME280;52496;51.082;5.066;2023-07-20T02:31:47;101353.28;;;15.78;100.00
65760;BME280;52496;51.082;5.066;2023-07-20T02:34:18;101345.00;;;15.73;100.00
65760;BME280;52496;51.082;5.066;2023-07-20T02:36:49;101355.34;;;15.70;100.00
65760;BME280;52496;51.082;5.066;2023-07-20T02:39:19;101353.44;;;15.64;100.00
65760;BME280;52496;51.082;5.066;2023-07-20T02:41:50;101361.50;;;15.57;100.00
65760;BME280;52496;51.082;5.066;2023-07-20T02:44:20;101356.09;;;15.50;100.00
65760;BME280;52496;51.082;5.066;2023-07-20T02:46:51;101354.22;;;15.44;100.00
65760;BME280;52496;51.082;5.066;2023-07-20T02:49:21;101351.09;;;15.34;100.00
65760;BME280;52496;51.082;5.066;2023-07-20T02:51:52;101355.63;;;15.27;100.00
65760;BME280;52496;51.082;5.066;2023-07-20T02:54:22;101362.88;;;15.20;100.00
65760;BME280;52496;51.082;5.066;2023-07-20T02:56:53;101362.22;;;15.18;100.00
65760;BME280;52496;51.082;5.066;2023-07-20T02:59:24;101370.53;;;15.16;100.00
65760;BME280;52496;51.082;5.066;2023-07-20T03:01:54;101376.31;;;15.13;100.00
65760;BME280;52496;51.082;5.066;2023-07-20T03:04:26;101383.97;;;15.09;100.00
65760;BME280;52496;51.082;5.066;2023-07-20T03:06:57;101381.69;;;15.06;100.00
65760;BME280;52496;51.082;5.066;2023-07-20T03:09:30;101386.19;;;14.99;100.00
65760;BME280;52496;51.082;5.066;2023-07-20T03:12:01;101376.66;;;14.97;100.00
65760;BME280;52496;51.082;5.066;2023-07-20T03:14:31;101385.56;;;14.97;100.00
65760;BME280;52496;51.082;5.066;2023-07-20T03:17:02;101386.59;;;14.96;100.00
65760;BME280;52496;51.082;5.066;2023-07-20T03:19:32;101388.66;;;14.94;100.00
65760;BME280;52496;51.082;5.066;2023-07-20T03:22:03;101387.41;;;14.90;100.00
65760;BME280;52496;51.082;5.066;2023-07-20T03:24:33;101392.53;;;14.85;100.00
65760;BME280;52496;51.082;5.066;2023-07-20T03:27:04;101397.50;;;14.81;100.00
65760;BME280;52496;51.082;5.066;2023-07-20T03:29:34;101395.19;;;14.78;100.00
65760;BME280;52496;51.082;5.066;2023-07-20T03:32:05;101394.78;;;14.75;100.00
65760;BME280;52496;51.082;5.066;2023-07-20T03:34:36;101394.34;;;14.71;100.00
65760;BME280;52496;51.082;5.066;2023-07-20T03:37:07;101402.00;;;14.67;100.00
65760;BME280;52496;51.082;5.066;2023-07-20T03:39:37;101397.63;;;14.66;100.00
65760;BME280;52496;51.082;5.066;2023-07-20T03:42:08;101396.78;;;14.66;100.00
65760;BME280;52496;51.082;5.066;2023-07-20T03:44:38;101391.00;;;14.69;100.00
65760;BME280;52496;51.082;5.066;2023-07-20T03:47:08;101396.59;;;14.67;100.00
65760;BME280;52496;51.082;5.066;2023-07-20T03:49:39;101403.00;;;14.66;100.00
65760;BME280;52496;51.082;5.066;2023-07-20T03:52:10;101406.72;;;14.65;100.00
65760;BME280;52496;51.082;5.066;2023-07-20T03:54:40;101406.09;;;14.63;100.00
65760;BME280;52496;51.082;5.066;2023-07-20T03:57:11;101398.88;;;14.64;100.00
65760;BME280;52496;51.082;5.066;2023-07-20T03:59:45;101405.06;;;14.64;100.00
65760;BME280;52496;51.082;5.066;2023-07-20T04:02:15;101411.47;;;14.63;100.00
65760;BME280;52496;51.082;5.066;2023-07-20T04:04:46;101408.56;;;14.58;100.00
65760;BME280;52496;51.082;5.066;2023-07-20T04:07:16;101412.25;;;14.57;100.00
65760;BME280;52496;51.082;5.066;2023-07-20T04:09:46;101408.94;;;14.55;100.00
65760;BME280;52496;51.082;5.066;2023-07-20T04:12:17;101401.69;;;14.56;100.00
65760;BME280;52496;51.082;5.066;2023-07-20T04:14:47;101399.84;;;14.56;100.00
65760;BME280;52496;51.082;5.066;2023-07-20T04:17:18;101403.34;;;14.57;100.00
65760;BME280;52496;51.082;5.066;2023-07-20T04:19:48;101406.03;;;14.57;100.00
65760;BME280;52496;51.082;5.066;2023-07-20T04:22:19;101407.53;;;14.59;100.00
65760;BME280;52496;51.082;5.066;2023-07-20T04:24:50;101410.47;;;14.64;100.00
65760;BME280;52496;51.082;5.066;2023-07-20T04:27:20;101410.50;;;14.71;100.00
65760;BME280;52496;51.082;5.066;2023-07-20T04:29:50;101398.09;;;14.77;100.00
65760;BME280;52496;51.082;5.066;2023-07-20T04:32:21;101398.31;;;14.82;100.00
65760;BME280;52496;51.082;5.066;2023-07-20T04:34:51;101406.25;;;14.90;100.00
65760;BME280;52496;51.082;5.066;2023-07-20T04:37:22;101405.06;;;14.99;100.00
65760;BME280;52496;51.082;5.066;2023-07-20T04:39:52;101405.53;;;15.09;100.00
65760;BME280;52496;51.082;5.066;2023-07-20T04:42:23;101413.00;;;15.14;100.00
65760;BME280;52496;51.082;5.066;2023-07-20T04:44:53;101422.16;;;15.20;100.00
65760;BME280;52496;51.082;5.066;2023-07-20T04:47:24;101416.75;;;15.20;100.00
65760;BME280;52496;51.082;5.066;2023-07-20T04:49:54;101414.06;;;15.20;100.00
65760;BME280;52496;51.082;5.066;2023-07-20T04:52:24;101415.72;;;15.21;100.00
65760;BME280;52496;51.082;5.066;2023-07-20T04:54:55;101414.06;;;15.20;100.00
65760;BME280;52496;51.082;5.066;2023-07-20T04:57:25;101412.84;;;15.22;100.00
65760;BME280;52496;51.082;5.066;2023-07-20T04:59:56;101419.06;;;15.29;100.00
65760;BME280;52496;51.082;5.066;2023-07-20T05:02:26;101424.47;;;15.36;100.00
65760;BME280;52496;51.082;5.066;2023-07-20T05:04:56;101433.22;;;15.45;100.00
65760;BME280;52496;51.082;5.066;2023-07-20T05:07:27;101428.66;;;15.52;100.00
65760;BME280;52496;51.082;5.066;2023-07-20T05:09:57;101430.38;;;15.66;100.00
65760;BME280;52496;51.082;5.066;2023-07-20T05:12:28;101421.72;;;15.77;100.00
65760;BME280;52496;51.082;5.066;2023-07-20T05:14:58;101412.63;;;15.92;100.00
65760;BME280;52496;51.082;5.066;2023-07-20T05:17:29;101418.84;;;16.05;100.00
65760;BME280;52496;51.082;5.066;2023-07-20T05:20:00;101438.59;;;16.19;100.00
65760;BME280;52496;51.082;5.066;2023-07-20T05:22:30;101435.47;;;16.29;100.00
65760;BME280;52496;51.082;5.066;2023-07-20T05:25:00;101432.16;;;16.40;100.00
65760;BME280;52496;51.082;5.066;2023-07-20T05:27:31;101429.22;;;16.48;100.00
65760;BME280;52496;51.082;5.066;2023-07-20T05:30:01;101428.78;;;16.58;100.00
65760;BME280;52496;51.082;5.066;2023-07-20T05:32:33;101426.28;;;16.70;100.00
65760;BME280;52496;51.082;5.066;2023-07-20T05:35:04;101433.75;;;16.88;100.00
65760;BME280;52496;51.082;5.066;2023-07-20T05:37:34;101442.44;;;17.03;100.00
65760;BME280;52496;51.082;5.066;2023-07-20T05:40:05;101441.56;;;17.16;100.00
65760;BME280;52496;51.082;5.066;2023-07-20T05:42:41;101436.56;;;17.26;100.00
65760;BME280;52496;51.082;5.066;2023-07-20T05:45:12;101441.91;;;17.39;100.00
65760;BME280;52496;51.082;5.066;2023-07-20T05:47:43;101441.81;;;17.53;100.00
65760;BME280;52496;51.082;5.066;2023-07-20T05:50:14;101449.88;;;17.66;100.00
65760;BME280;52496;51.082;5.066;2023-07-20T05:52:44;101445.47;;;17.78;100.00
65760;BME280;52496;51.082;5.066;2023-07-20T05:55:15;101441.66;;;17.93;100.00
65760;BME280;52496;51.082;5.066;2023-07-20T05:57:46;101450.06;;;18.09;100.00
65760;BME280;52496;51.082;5.066;2023-07-20T06:00:18;101447.41;;;18.28;100.00
65760;BME280;52496;51.082;5.066;2023-07-20T06:02:49;101434.97;;;18.45;100.00
65760;BME280;52496;51.082;5.066;2023-07-20T06:05:22;101448.84;;;18.55;100.00
65760;BME280;52496;51.082;5.066;2023-07-20T06:07:53;101451.03;;;18.65;100.00
65760;BME280;52496;51.082;5.066;2023-07-20T06:10:24;101457.69;;;18.69;100.00
65760;BME280;52496;51.082;5.066;2023-07-20T06:12:55;101456.19;;;18.73;100.00
65760;BME280;52496;51.082;5.066;2023-07-20T06:15:26;101458.47;;;18.76;100.00
65760;BME280;52496;51.082;5.066;2023-07-20T06:17:57;101458.91;;;18.73;100.00
65760;BME280;52496;51.082;5.066;2023-07-20T06:20:28;101459.72;;;18.74;100.00
65760;BME280;52496;51.082;5.066;2023-07-20T06:22:58;101461.34;;;18.82;100.00
65760;BME280;52496;51.082;5.066;2023-07-20T06:25:29;101454.56;;;18.91;100.00
65760;BME280;52496;51.082;5.066;2023-07-20T06:27:59;101453.50;;;18.92;100.00
65760;BME280;52496;51.082;5.066;2023-07-20T06:30:30;101459.09;;;18.97;100.00
65760;BME280;52496;51.082;5.066;2023-07-20T06:33:00;101466.94;;;19.05;100.00
65760;BME280;52496;51.082;5.066;2023-07-20T06:35:31;101464.34;;;19.10;100.00
65760;BME280;52496;51.082;5.066;2023-07-20T06:38:02;101456.91;;;19.06;100.00
65760;BME280;52496;51.082;5.066;2023-07-20T06:40:35;101460.56;;;18.93;100.00
65760;BME280;52496;51.082;5.066;2023-07-20T06:43:05;101457.38;;;19.02;100.00
65760;BME280;52496;51.082;5.066;2023-07-20T06:45:36;101463.31;;;19.11;100.00
65760;BME280;52496;51.082;5.066;2023-07-20T06:48:06;101469.03;;;19.21;100.00
65760;BME280;52496;51.082;5.066;2023-07-20T06:50:37;101467.38;;;19.20;100.00
65760;BME280;52496;51.082;5.066;2023-07-20T06:53:07;101475.53;;;19.20;100.00
65760;BME280;52496;51.082;5.066;2023-07-20T06:55:38;101464.97;;;19.31;100.00
65760;BME280;52496;51.082;5.066;2023-07-20T06:58:10;101469.75;;;19.47;100.00
65760;BME280;52496;51.082;5.066;2023-07-20T07:00:41;101476.31;;;19.58;100.00
65760;BME280;52496;51.082;5.066;2023-07-20T07:03:12;101473.31;;;19.66;100.00
65760;BME280;52496;51.082;5.066;2023-07-20T07:05:44;101479.00;;;19.76;100.00
65760;BME280;52496;51.082;5.066;2023-07-20T07:08:17;101480.34;;;19.85;100.00
65760;BME280;52496;51.082;5.066;2023-07-20T07:10:48;101483.69;;;19.99;100.00
65760;BME280;52496;51.082;5.066;2023-07-20T07:13:19;101481.03;;;20.23;100.00
65760;BME280;52496;51.082;5.066;2023-07-20T07:15:49;101475.22;;;20.61;100.00
65760;BME280;52496;51.082;5.066;2023-07-20T07:18:20;101477.00;;;20.79;100.00
65760;BME280;52496;51.082;5.066;2023-07-20T07:20:52;101476.97;;;20.91;98.50
65760;BME280;52496;51.082;5.066;2023-07-20T07:23:23;101474.84;;;20.81;97.11
65760;BME280;52496;51.082;5.066;2023-07-20T07:25:53;101477.22;;;20.77;97.46
65760;BME280;52496;51.082;5.066;2023-07-20T07:28:24;101473.66;;;20.77;98.50
65760;BME280;52496;51.082;5.066;2023-07-20T07:30:55;101483.38;;;20.73;96.23
65760;BME280;52496;51.082;5.066;2023-07-20T07:33:25;101478.75;;;20.61;95.17
65760;BME280;52496;51.082;5.066;2023-07-20T07:35:56;101480.34;;;20.51;95.90
65760;BME280;52496;51.082;5.066;2023-07-20T07:38:26;101476.81;;;20.50;96.33
65760;BME280;52496;51.082;5.066;2023-07-20T07:40:58;101486.22;;;20.54;95.20
65760;BME280;52496;51.082;5.066;2023-07-20T07:43:29;101492.69;;;20.65;95.36
65760;BME280;52496;51.082;5.066;2023-07-20T07:46:00;101492.22;;;20.92;91.91
65760;BME280;52496;51.082;5.066;2023-07-20T07:48:30;101486.88;;;21.08;90.20
65760;BME280;52496;51.082;5.066;2023-07-20T07:51:01;101476.53;;;21.34;87.68
65760;BME280;52496;51.082;5.066;2023-07-20T07:53:32;101483.00;;;21.57;86.87
65760;BME280;52496;51.082;5.066;2023-07-20T07:56:03;101486.47;;;21.81;87.46
65760;BME280;52496;51.082;5.066;2023-07-20T07:58:33;101488.44;;;22.14;87.92
65760;BME280;52496;51.082;5.066;2023-07-20T08:01:04;101490.47;;;22.52;84.43
65760;BME280;52496;51.082;5.066;2023-07-20T08:03:35;101496.53;;;22.93;82.25
65760;BME280;52496;51.082;5.066;2023-07-20T08:06:07;101491.00;;;23.27;79.26
65760;BME280;52496;51.082;5.066;2023-07-20T08:08:37;101493.03;;;23.58;78.13
65760;BME280;52496;51.082;5.066;2023-07-20T08:11:08;101490.03;;;23.60;77.67
65760;BME280;52496;51.082;5.066;2023-07-20T08:13:39;101485.69;;;23.64;78.06
65760;BME280;52496;51.082;5.066;2023-07-20T08:16:09;101489.28;;;23.65;75.68
65760;BME280;52496;51.082;5.066;2023-07-20T08:18:40;101490.75;;;23.72;75.10
65760;BME280;52496;51.082;5.066;2023-07-20T08:21:10;101487.91;;;23.67;72.54
65760;BME280;52496;51.082;5.066;2023-07-20T08:23:41;101491.50;;;23.46;72.60
65760;BME280;52496;51.082;5.066;2023-07-20T08:26:11;101492.47;;;23.34;75.45
65760;BME280;52496;51.082;5.066;2023-07-20T08:28:43;101498.09;;;23.28;74.11
65760;BME280;52496;51.082;5.066;2023-07-20T08:31:14;101486.25;;;23.17;73.45
65760;BME280;52496;51.082;5.066;2023-07-20T08:33:44;101483.91;;;23.04;74.05
65760;BME280;52496;51.082;5.066;2023-07-20T08:36:15;101489.78;;;22.96;72.61
65760;BME280;52496;51.082;5.066;2023-07-20T08:38:46;101486.34;;;22.88;72.05
65760;BME280;52496;51.082;5.066;2023-07-20T08:41:18;101488.75;;;23.02;72.84
65760;BME280;52496;51.082;5.066;2023-07-20T08:43:49;101486.25;;;23.17;73.68
65760;BME280;52496;51.082;5.066;2023-07-20T08:46:22;101496.00;;;23.57;72.32
65760;BME280;52496;51.082;5.066;2023-07-20T08:48:54;101486.53;;;23.87;70.53
65760;BME280;52496;51.082;5.066;2023-07-20T08:51:25;101485.44;;;24.15;69.65
65760;BME280;52496;51.082;5.066;2023-07-20T08:53:58;101489.38;;;24.61;65.74
65760;BME280;52496;51.082;5.066;2023-07-20T08:56:31;101486.28;;;24.90;64.88
65760;BME280;52496;51.082;5.066;2023-07-20T08:59:04;101491.00;;;25.00;63.53
65760;BME280;52496;51.082;5.066;2023-07-20T09:01:35;101484.41;;;25.01;63.51
65760;BME280;52496;51.082;5.066;2023-07-20T09:04:06;101482.50;;;24.96;64.51
65760;BME280;52496;51.082;5.066;2023-07-20T09:06:37;101486.75;;;24.77;63.48
65760;BME280;52496;51.082;5.066;2023-07-20T09:09:08;101484.41;;;24.53;66.07
65760;BME280;52496;51.082;5.066;2023-07-20T09:11:38;101496.78;;;24.34;65.60
65760;BME280;52496;51.082;5.066;2023-07-20T09:14:11;101488.06;;;24.37;66.60
65760;BME280;52496;51.082;5.066;2023-07-20T09:16:53;101485.84;;;24.34;65.98
65760;BME280;52496;51.082;5.066;2023-07-20T09:19:25;101482.56;;;24.32;65.99
65760;BME280;52496;51.082;5.066;2023-07-20T09:21:55;101478.69;;;24.22;65.38
65760;BME280;52496;51.082;5.066;2023-07-20T09:24:28;101477.28;;;24.20;66.51
65760;BME280;52496;51.082;5.066;2023-07-20T09:27:01;101471.34;;;24.60;67.06
65760;BME280;52496;51.082;5.066;2023-07-20T09:29:34;101470.41;;;24.87;63.00
65760;BME280;52496;51.082;5.066;2023-07-20T09:32:05;101469.47;;;25.13;62.55
65760;BME280;52496;51.082;5.066;2023-07-20T09:34:35;101470.13;;;25.36;62.43
65760;BME280;52496;51.082;5.066;2023-07-20T09:37:06;101473.94;;;25.30;60.49
65760;BME280;52496;51.082;5.066;2023-07-20T09:39:46;101472.09;;;24.98;59.60
65760;BME280;52496;51.082;5.066;2023-07-20T09:42:17;101474.97;;;24.76;59.55
65760;BME280;52496;51.082;5.066;2023-07-20T09:44:48;101467.78;;;24.65;59.66
65760;BME280;52496;51.082;5.066;2023-07-20T09:47:23;101473.41;;;24.85;59.80
65760;BME280;52496;51.082;5.066;2023-07-20T09:49:59;101469.25;;;25.20;58.27
65760;BME280;52496;51.082;5.066;2023-07-20T09:52:31;101463.63;;;25.62;58.01
65760;BME280;52496;51.082;5.066;2023-07-20T09:55:03;101462.06;;;26.02;58.08
65760;BME280;52496;51.082;5.066;2023-07-20T09:57:34;101456.03;;;26.11;56.71
65760;BME280;52496;51.082;5.066;2023-07-20T10:00:07;101454.09;;;26.31;53.69
65760;BME280;52496;51.082;5.066;2023-07-20T10:02:45;101459.88;;;26.50;53.75
65760;BME280;52496;51.082;5.066;2023-07-20T10:05:17;101452.47;;;26.36;55.16
65760;BME280;52496;51.082;5.066;2023-07-20T10:07:50;101455.50;;;26.03;53.86
65760;BME280;52496;51.082;5.066;2023-07-20T10:10:21;101450.25;;;25.86;54.16
65760;BME280;52496;51.082;5.066;2023-07-20T10:12:51;101453.28;;;26.16;54.73
65760;BME280;52496;51.082;5.066;2023-07-20T10:15:30;101450.53;;;26.57;53.36
65760;BME280;52496;51.082;5.066;2023-07-20T10:18:10;101443.63;;;26.85;53.05
65760;BME280;52496;51.082;5.066;2023-07-20T10:20:43;101450.50;;;26.87;54.03
65760;BME280;52496;51.082;5.066;2023-07-20T10:23:14;101451.56;;;26.91;51.69
65760;BME280;52496;51.082;5.066;2023-07-20T10:25:45;101443.94;;;26.63;52.82
65760;BME280;52496;51.082;5.066;2023-07-20T10:28:17;101438.78;;;26.51;53.19
65760;BME280;52496;51.082;5.066;2023-07-20T10:30:48;101440.63;;;26.76;54.08
65760;BME280;52496;51.082;5.066;2023-07-20T10:33:19;101437.22;;;27.05;54.32
65760;BME280;52496;51.082;5.066;2023-07-20T10:41:33;101433.88;;;27.78;52.07
65760;BME280;52496;51.082;5.066;2023-07-20T10:44:06;101431.44;;;27.66;49.59
65760;BME280;52496;51.082;5.066;2023-07-20T10:46:44;101429.63;;;27.90;49.04
65760;BME280;52496;51.082;5.066;2023-07-20T10:49:18;101420.66;;;28.14;46.55
65760;BME280;52496;51.082;5.066;2023-07-20T10:51:58;101420.44;;;28.05;47.90
65760;BME280;52496;51.082;5.066;2023-07-20T10:57:25;101417.66;;;27.76;45.47
65760;BME280;52496;51.082;5.066;2023-07-20T11:00:12;101415.78;;;27.22;45.89
65760;BME280;52496;51.082;5.066;2023-07-20T11:02:44;101415.31;;;26.99;47.18
65760;BME280;52496;51.082;5.066;2023-07-20T11:05:37;101411.75;;;26.94;47.65
65760;BME280;52496;51.082;5.066;2023-07-20T11:08:12;101412.63;;;26.79;48.03
65760;BME280;52496;51.082;5.066;2023-07-20T11:10:43;101413.19;;;26.71;46.85
65760;BME280;52496;51.082;5.066;2023-07-20T11:13:17;101407.19;;;26.53;48.52
65760;BME280;52496;51.082;5.066;2023-07-20T11:16:08;101406.66;;;26.57;47.28
65760;BME280;52496;51.082;5.066;2023-07-20T11:18:38;101413.78;;;26.52;47.61
65760;BME280;52496;51.082;5.066;2023-07-20T11:21:10;101408.06;;;26.49;46.29
65760;BME280;52496;51.082;5.066;2023-07-20T11:23:42;101399.81;;;26.54;48.93
65760;BME280;52496;51.082;5.066;2023-07-20T11:26:13;101402.78;;;26.68;48.14
65760;BME280;52496;51.082;5.066;2023-07-20T11:28:51;101402.09;;;27.07;47.17
65760;BME280;52496;51.082;5.066;2023-07-20T11:31:22;101404.28;;;27.15;46.16
65760;BME280;52496;51.082;5.066;2023-07-20T11:33:52;101399.13;;;26.98;47.10
65760;BME280;52496;51.082;5.066;2023-07-20T11:36:24;101398.34;;;26.87;47.84
65760;BME280;52496;51.082;5.066;2023-07-20T11:38:54;101396.72;;;26.76;49.24
65760;BME280;52496;51.082;5.066;2023-07-20T11:41:26;101398.16;;;26.63;48.39
65760;BME280;52496;51.082;5.066;2023-07-20T11:43:57;101402.56;;;26.54;48.69
65760;BME280;52496;51.082;5.066;2023-07-20T11:46:28;101395.16;;;26.39;49.12
65760;BME280;52496;51.082;5.066;2023-07-20T11:48:59;101396.81;;;26.20;49.62
65760;BME280;52496;51.082;5.066;2023-07-20T11:51:31;101397.66;;;26.00;48.58
65760;BME280;52496;51.082;5.066;2023-07-20T11:54:02;101387.53;;;25.85;49.94
65760;BME280;52496;51.082;5.066;2023-07-20T11:56:33;101392.72;;;25.81;50.04
65760;BME280;52496;51.082;5.066;2023-07-20T11:59:03;101392.72;;;25.81;50.45
65760;BME280;52496;51.082;5.066;2023-07-20T12:01:34;101384.78;;;25.90;50.72
65760;BME280;52496;51.082;5.066;2023-07-20T12:04:05;101391.91;;;25.91;51.09
65760;BME280;52496;51.082;5.066;2023-07-20T12:06:37;101377.13;;;25.82;51.52
65760;BME280;52496;51.082;5.066;2023-07-20T12:09:14;101374.88;;;25.63;52.44
65760;BME280;52496;51.082;5.066;2023-07-20T12:11:45;101379.25;;;25.64;50.48
65760;BME280;52496;51.082;5.066;2023-07-20T12:14:16;101385.31;;;26.18;50.94
65760;BME280;52496;51.082;5.066;2023-07-20T12:16:52;101375.84;;;26.80;50.27
65760;BME280;52496;51.082;5.066;2023-07-20T12:19:25;101375.00;;;27.44;48.40
65760;BME280;52496;51.082;5.066;2023-07-20T12:21:57;101369.84;;;27.72;47.87
65760;BME280;52496;51.082;5.066;2023-07-20T12:24:29;101371.25;;;28.04;47.87
65760;BME280;52496;51.082;5.066;2023-07-20T12:27:00;101367.31;;;28.39;45.44
65760;BME280;52496;51.082;5.066;2023-07-20T12:29:30;101374.63;;;28.54;44.63
65760;BME280;52496;51.082;5.066;2023-07-20T12:32:06;101370.78;;;28.55;45.62
65760;BME280;52496;51.082;5.066;2023-07-20T12:34:37;101364.69;;;28.58;45.39
65760;BME280;52496;51.082;5.066;2023-07-20T12:37:09;101366.06;;;28.79;45.01
65760;BME280;52496;51.082;5.066;2023-07-20T12:39:39;101362.22;;;28.99;42.93
65760;BME280;52496;51.082;5.066;2023-07-20T12:42:11;101361.28;;;29.09;40.61
65760;BME280;52496;51.082;5.066;2023-07-20T12:44:41;101353.16;;;28.99;42.52
65760;BME280;52496;51.082;5.066;2023-07-20T12:47:12;101350.94;;;29.01;40.93
65760;BME280;52496;51.082;5.066;2023-07-20T12:49:42;101346.47;;;29.05;41.78
65760;BME280;52496;51.082;5.066;2023-07-20T12:52:15;101347.66;;;29.37;42.28
65760;BME280;52496;51.082;5.066;2023-07-20T12:54:46;101341.28;;;29.22;40.37
65760;BME280;52496;51.082;5.066;2023-07-20T12:57:16;101336.25;;;28.87;41.90
65760;BME280;52496;51.082;5.066;2023-07-20T12:59:47;101342.53;;;28.44;42.51
65760;BME280;52496;51.082;5.066;2023-07-20T13:02:17;101334.94;;;28.07;43.87
65760;BME280;52496;51.082;5.066;2023-07-20T13:04:48;101332.25;;;28.02;43.39
65760;BME280;52496;51.082;5.066;2023-07-20T13:07:32;101334.41;;;28.05;42.96
65760;BME280;52496;51.082;5.066;2023-07-20T13:10:04;101335.69;;;27.88;42.53
65760;BME280;52496;51.082;5.066;2023-07-20T13:12:36;101328.72;;;27.62;44.22
65760;BME280;52496;51.082;5.066;2023-07-20T13:15:07;101321.53;;;27.66;44.12
65760;BME280;52496;51.082;5.066;2023-07-20T13:17:39;101320.22;;;27.93;43.44
65760;BME280;52496;51.082;5.066;2023-07-20T13:20:10;101321.00;;;28.27;45.31
65760;BME280;52496;51.082;5.066;2023-07-20T13:22:41;101322.75;;;28.42;43.31
65760;BME280;52496;51.082;5.066;2023-07-20T13:25:11;101329.25;;;28.27;43.43
65760;BME280;52496;51.082;5.066;2023-07-20T13:27:42;101313.47;;;28.09;42.65